Time;durP1;ratioP1;P1;durP2;ratioP2;P2;SDS_P1;SDS_P2;PMS_P1;PMS_P2;Temp;Humidity;BMP_temperature;BMP_pressure;BME280_temperature;BME280_humidity;BME280_pressure;Samples;Min_cycle;Max_cycle;Signal;HPM_P1;HPM_P2
2021/05/01 00:01:19;;;;;;;49.75;44.63;;;7.70;93.60;;;;;;5092070;28;20265;-77
2021/05/01 00:03:45;;;;;;;48.78;43.78;;;7.70;94.30;;;;;;5092044;28;20657;-77
2021/05/01 00:06:12;;;;;;;61.35;45.47;;;7.80;94.00;;;;;;5091390;28;20655;-77
2021/05/01 00:08:38;;;;;;;48.58;43.67;;;7.80;93.70;;;;;;5092052;28;20285;-76
2021/05/01 00:11:05;;;;;;;164.60;52.80;;;7.80;93.20;;;;;;5091906;28;20219;-76
2021/05/01 00:13:33;;;;;;;48.20;43.40;;;7.80;93.50;;;;;;5091618;28;20206;-76
2021/05/01 00:16:00;;;;;;;49.53;44.80;;;7.80;93.70;;;;;;5091586;28;20195;-76
2021/05/01 00:18:27;;;;;;;48.30;43.60;;;7.80;93.50;;;;;;5091891;28;20202;-76
2021/05/01 00:20:53;;;;;;;49.03;44.38;;;7.80;93.60;;;;;;5092069;28;20316;-77
2021/05/01 00:23:20;;;;;;;57.72;45.85;;;7.80;93.70;;;;;;5092033;28;20285;-77
2021/05/01 00:25:46;;;;;;;59.72;48.47;;;7.90;93.70;;;;;;5091263;28;20648;-77
2021/05/01 00:28:13;;;;;;;48.38;43.50;;;7.90;94.00;;;;;;5091178;28;20201;-76
2021/05/01 00:30:40;;;;;;;49.50;44.83;;;7.90;93.70;;;;;;5091720;28;20218;-76
2021/05/01 00:33:07;;;;;;;47.78;43.13;;;8.00;93.60;;;;;;5091539;28;20196;-77
2021/05/01 00:35:34;;;;;;;48.80;44.35;;;8.00;93.30;;;;;;5091611;28;20244;-76
2021/05/01 00:38:01;;;;;;;51.05;46.15;;;8.10;92.70;;;;;;5095514;28;20656;-77
2021/05/01 00:40:27;;;;;;;47.10;42.60;;;8.00;92.20;;;;;;5095420;28;20423;-77
2021/05/01 00:42:54;;;;;;;49.80;44.65;;;7.90;92.20;;;;;;5095395;28;20195;-76
2021/05/01 00:45:21;;;;;;;51.20;45.10;;;7.90;92.10;;;;;;5095103;28;20257;-77
2021/05/01 00:47:48;;;;;;;48.67;44.03;;;7.90;92.20;;;;;;5095085;28;20647;-77
2021/05/01 00:50:15;;;;;;;47.45;42.65;;;7.90;91.90;;;;;;5095193;28;20643;-77
2021/05/01 00:52:42;;;;;;;49.50;44.42;;;7.90;91.70;;;;;;5094998;28;20197;-78
2021/05/01 00:55:11;;;;;;;48.25;43.50;;;7.90;91.80;;;;;;5095024;28;20812;-77
2021/05/01 00:57:38;;;;;;;47.72;42.90;;;7.90;92.00;;;;;;5094468;28;20285;-78
2021/05/01 01:00:07;;;;;;;49.80;44.72;;;7.90;92.20;;;;;;5095101;28;20198;-77
2021/05/01 01:02:34;;;;;;;132.07;51.10;;;7.80;92.70;;;;;;5095096;28;20230;-77
2021/05/01 01:05:01;;;;;;;50.45;45.45;;;7.80;93.30;;;;;;5094854;28;20215;-77
2021/05/01 01:07:28;;;;;;;46.75;42.20;;;7.90;94.30;;;;;;5094300;28;20242;-77
2021/05/01 01:09:54;;;;;;;47.28;42.63;;;7.90;93.50;;;;;;5094524;28;20610;-77
2021/05/01 01:12:20;;;;;;;48.22;43.42;;;8.00;93.10;;;;;;5094592;28;20200;-77
2021/05/01 01:14:47;;;;;;;50.10;45.13;;;8.10;92.60;;;;;;5094712;28;20348;-77
2021/05/01 01:17:13;;;;;;;47.90;43.35;;;8.10;92.30;;;;;;5093990;28;20199;-77
2021/05/01 01:19:40;;;;;;;66.35;45.45;;;8.10;92.70;;;;;;5094437;28;20228;-77
2021/05/01 01:22:14;;;;;;;50.20;45.10;;;8.10;92.90;;;;;;5094205;28;20219;-81
2021/05/01 01:24:41;;;;;;;50.10;44.75;;;8.00;93.80;;;;;;5094418;28;20286;-77
2021/05/01 01:27:08;;;;;;;49.42;44.38;;;8.00;93.50;;;;;;5093754;28;20210;-78
2021/05/01 01:29:37;;;;;;;47.53;42.70;;;8.10;93.00;;;;;;5094092;28;20231;-77
2021/05/01 01:32:04;;;;;;;48.53;43.75;;;8.10;92.70;;;;;;5093985;28;20214;-77
2021/05/01 01:34:31;;;;;;;49.95;44.92;;;8.10;92.70;;;;;;5093934;28;20202;-78
2021/05/01 01:36:57;;;;;;;50.00;45.20;;;8.10;92.40;;;;;;5093575;28;20256;-77
2021/05/01 01:39:25;;;;;;;133.05;58.70;;;8.10;92.30;;;;;;5094319;28;20289;-78
2021/05/01 01:41:51;;;;;;;48.92;44.05;;;8.10;92.00;;;;;;5094195;28;20301;-77
2021/05/01 01:44:17;;;;;;;49.22;44.50;;;8.20;92.00;;;;;;5094276;28;20339;-77
2021/05/01 01:46:44;;;;;;;48.15;43.22;;;8.20;91.60;;;;;;5093344;28;20279;-77
2021/05/01 01:49:10;;;;;;;51.67;46.35;;;8.20;91.70;;;;;;5093405;28;20203;-77
2021/05/01 01:51:37;;;;;;;48.85;44.15;;;8.10;91.80;;;;;;5093940;28;20298;-77
2021/05/01 01:54:04;;;;;;;49.13;44.05;;;8.10;91.90;;;;;;5094674;28;20195;-77
2021/05/01 01:56:34;;;;;;;50.90;45.85;;;8.10;91.80;;;;;;5093894;28;20270;-77
2021/05/01 01:59:01;;;;;;;51.80;46.47;;;8.10;91.90;;;;;;5094685;28;20281;-77
2021/05/01 02:01:27;;;;;;;50.72;45.40;;;8.20;91.70;;;;;;5094162;28;20332;-77
2021/05/01 02:03:53;;;;;;;51.35;46.15;;;8.20;91.60;;;;;;5093890;28;20277;-77
2021/05/01 02:06:20;;;;;;;48.45;43.55;;;8.10;92.00;;;;;;5093438;28;20507;-77
2021/05/01 02:08:46;;;;;;;49.50;44.55;;;8.10;92.10;;;;;;5094399;28;20282;-77
2021/05/01 02:11:13;;;;;;;49.70;44.95;;;8.20;91.80;;;;;;5094323;28;20302;-77
2021/05/01 02:13:40;;;;;;;48.22;43.60;;;8.30;91.60;;;;;;5094090;28;20277;-77
2021/05/01 02:16:07;;;;;;;47.97;43.13;;;8.30;91.20;;;;;;5092950;28;20329;-77
2021/05/01 02:18:33;;;;;;;49.63;44.53;;;8.30;90.90;;;;;;5094123;28;20197;-77
2021/05/01 02:21:00;;;;;;;48.67;43.78;;;8.30;90.60;;;;;;5094774;28;20302;-77
2021/05/01 02:23:26;;;;;;;49.47;44.38;;;8.30;90.50;;;;;;5093825;28;20285;-77
2021/05/01 02:25:53;;;;;;;47.78;43.00;;;8.30;90.80;;;;;;5092867;28;20587;-76
2021/05/01 02:28:19;;;;;;;48.65;43.63;;;8.20;91.20;;;;;;5093716;28;20285;-77
2021/05/01 02:30:47;;;;;;;66.85;47.50;;;8.20;91.10;;;;;;5093534;28;20215;-76
2021/05/01 02:33:14;;;;;;;48.25;43.38;;;8.20;91.20;;;;;;5093458;28;20229;-77
2021/05/01 02:35:42;;;;;;;51.17;45.72;;;8.10;92.60;;;;;;5092998;28;20208;-76
2021/05/01 02:38:09;;;;;;;49.80;45.08;;;8.10;92.60;;;;;;5093331;28;20248;-77
2021/05/01 02:40:35;;;;;;;47.00;42.03;;;8.00;92.60;;;;;;5093030;28;20219;-77
2021/05/01 02:43:03;;;;;;;53.17;47.92;;;8.10;92.50;;;;;;5093124;28;20199;-76
2021/05/01 02:45:30;;;;;;;49.83;44.70;;;8.00;92.60;;;;;;5092408;28;20674;-76
2021/05/01 02:47:57;;;;;;;51.47;45.20;;;8.00;92.60;;;;;;5092740;28;20229;-77
2021/05/01 02:50:23;;;;;;;243.75;59.90;;;8.10;92.70;;;;;;5092797;28;20229;-77
2021/05/01 02:52:50;;;;;;;50.08;44.80;;;8.20;92.60;;;;;;5093105;28;20289;-77
2021/05/01 02:55:17;;;;;;;51.78;46.67;;;8.30;92.90;;;;;;5093148;28;20282;-77
2021/05/01 02:57:43;;;;;;;52.70;47.35;;;8.40;92.00;;;;;;5092952;28;20290;-77
2021/05/01 03:00:12;;;;;;;51.15;45.95;;;8.40;91.50;;;;;;5092964;28;20534;-78
2021/05/01 03:02:38;;;;;;;50.10;45.10;;;8.40;91.30;;;;;;5093321;28;20667;-77
2021/05/01 03:05:08;;;;;;;52.63;47.22;;;8.40;91.20;;;;;;5093126;28;20195;-77
2021/05/01 03:07:35;;;;;;;54.63;47.80;;;8.30;91.10;;;;;;5092465;28;20195;-77
2021/05/01 03:10:03;;;;;;;54.70;49.15;;;8.20;91.10;;;;;;5092939;28;20195;-77
2021/05/01 03:12:29;;;;;;;53.97;48.42;;;8.30;91.10;;;;;;5092641;28;20245;-77
2021/05/01 03:14:56;;;;;;;55.67;50.08;;;8.30;91.00;;;;;;5092421;28;20202;-77
2021/05/01 03:17:22;;;;;;;54.47;48.75;;;8.30;91.10;;;;;;5092548;28;20233;-77
2021/05/01 03:19:49;;;;;;;58.17;48.78;;;8.30;90.90;;;;;;5092665;28;20195;-77
2021/05/01 03:22:16;;;;;;;60.75;54.38;;;8.30;91.00;;;;;;5094217;28;20217;-77
2021/05/01 03:24:43;;;;;;;79.80;54.92;;;8.30;91.20;;;;;;5093926;28;20202;-77
2021/05/01 03:27:09;;;;;;;61.95;53.60;;;8.40;90.80;;;;;;5092825;28;20592;-77
2021/05/01 03:29:36;;;;;;;60.13;53.50;;;8.30;90.80;;;;;;5092997;28;20703;-78
2021/05/01 03:32:02;;;;;;;60.13;54.03;;;8.20;91.60;;;;;;5093153;28;20279;-77
2021/05/01 03:34:29;;;;;;;57.97;52.00;;;8.20;91.60;;;;;;5092902;28;20287;-77
2021/05/01 03:36:55;;;;;;;57.90;51.88;;;8.20;91.50;;;;;;5091764;28;20205;-77
2021/05/01 03:39:22;;;;;;;59.10;53.05;;;8.20;91.50;;;;;;5092394;28;20204;-77
2021/05/01 03:41:50;;;;;;;57.78;51.90;;;8.20;91.60;;;;;;5092214;28;20223;-77
2021/05/01 03:44:16;;;;;;;52.97;47.28;;;8.30;90.90;;;;;;5092443;28;20199;-77
2021/05/01 03:46:43;;;;;;;50.45;45.50;;;8.30;90.50;;;;;;5091843;28;20219;-77
2021/05/01 03:49:09;;;;;;;54.08;48.58;;;8.40;90.40;;;;;;5092347;28;20191;-77
2021/05/01 03:51:35;;;;;;;53.97;48.60;;;8.40;90.30;;;;;;5092213;28;20219;-77
2021/05/01 03:54:02;;;;;;;54.47;48.90;;;8.40;90.30;;;;;;5092251;28;20600;-77
2021/05/01 03:56:31;;;;;;;52.67;47.00;;;8.40;90.30;;;;;;5091551;28;20198;-77
2021/05/01 03:58:57;;;;;;;54.65;49.05;;;8.30;90.50;;;;;;5092257;28;20234;-77
2021/05/01 04:01:24;;;;;;;55.30;49.80;;;8.30;91.40;;;;;;5092152;28;20305;-77
2021/05/01 04:03:50;;;;;;;54.15;48.50;;;8.20;93.40;;;;;;5092147;28;20203;-77
2021/05/01 04:06:16;;;;;;;55.55;49.30;;;8.20;94.90;;;;;;5091569;28;20227;-77
2021/05/01 04:08:43;;;;;;;55.90;50.20;;;8.20;94.50;;;;;;5092330;28;20237;-77
2021/05/01 04:11:10;;;;;;;54.50;48.58;;;8.30;93.60;;;;;;5093283;28;20302;-77
2021/05/01 04:13:42;;;;;;;56.38;48.85;;;8.30;92.90;;;;;;5095901;28;20195;-77
2021/05/01 04:16:08;;;;;;;55.65;49.85;;;8.30;92.40;;;;;;5095721;28;20195;-77
2021/05/01 04:18:34;;;;;;;53.65;48.13;;;8.30;92.00;;;;;;5095957;28;20278;-77
2021/05/01 04:21:01;;;;;;;55.47;49.20;;;8.30;92.00;;;;;;5095820;28;20211;-77
2021/05/01 04:23:27;;;;;;;58.05;51.95;;;8.40;91.60;;;;;;5095831;28;20292;-78
2021/05/01 04:25:54;;;;;;;55.08;49.33;;;8.40;91.30;;;;;;5095287;28;20219;-77
2021/05/01 04:28:20;;;;;;;55.13;49.60;;;8.40;91.40;;;;;;5095389;28;20202;-78
2021/05/01 04:30:47;;;;;;;54.95;49.13;;;8.50;91.10;;;;;;5095825;28;20298;-77
2021/05/01 04:33:14;;;;;;;254.23;64.82;;;8.50;91.20;;;;;;5095487;28;20563;-77
2021/05/01 04:35:40;;;;;;;56.80;50.78;;;8.50;91.90;;;;;;5095332;28;20195;-76
2021/05/01 04:38:06;;;;;;;57.28;51.33;;;8.50;93.10;;;;;;5095734;28;20203;-77
2021/05/01 04:40:33;;;;;;;57.25;51.25;;;8.60;92.30;;;;;;5095429;28;20211;-77
2021/05/01 04:43:02;;;;;;;60.90;54.70;;;8.50;90.70;;;;;;5095442;28;20255;-77
2021/05/01 04:45:29;;;;;;;60.90;54.65;;;8.60;90.90;;;;;;5094879;28;20223;-76
2021/05/01 04:47:56;;;;;;;62.83;56.08;;;8.50;90.30;;;;;;5095204;28;20214;-77
2021/05/01 04:50:23;;;;;;;60.50;53.30;;;8.60;90.30;;;;;;5095203;28;20692;-77
2021/05/01 04:52:49;;;;;;;62.10;55.40;;;8.70;89.80;;;;;;5095174;28;20344;-77
2021/05/01 04:55:17;;;;;;;61.75;55.28;;;8.80;89.40;;;;;;5095323;28;20272;-78
2021/05/01 04:57:44;;;;;;;63.58;56.58;;;8.80;89.10;;;;;;5094619;28;20199;-77
2021/05/01 05:00:13;;;;;;;62.72;54.95;;;8.80;89.50;;;;;;5095160;28;20191;-78
2021/05/01 05:02:40;;;;;;;64.78;57.92;;;8.80;89.30;;;;;;5095278;28;20657;-77
2021/05/01 05:05:09;;;;;;;65.28;56.00;;;8.90;89.10;;;;;;5094910;28;20302;-77
2021/05/01 05:07:36;;;;;;;63.78;57.03;;;8.60;90.00;;;;;;5094377;28;20239;-77
2021/05/01 05:10:02;;;;;;;61.40;53.72;;;8.70;90.00;;;;;;5094922;28;20287;-77
2021/05/01 05:12:29;;;;;;;61.20;54.72;;;8.70;90.50;;;;;;5094838;28;20197;-77
2021/05/01 05:14:55;;;;;;;58.60;52.38;;;8.80;90.20;;;;;;5094793;28;20748;-78
2021/05/01 05:17:22;;;;;;;59.40;52.58;;;8.80;90.10;;;;;;5094329;28;20649;-77
2021/05/01 05:19:48;;;;;;;58.60;52.42;;;8.90;90.10;;;;;;5094639;28;20556;-77
2021/05/01 05:22:15;;;;;;;57.83;51.85;;;9.00;88.50;;;;;;5094501;28;20309;-78
2021/05/01 05:24:42;;;;;;;57.17;51.28;;;9.20;88.50;;;;;;5094776;28;20625;-78
2021/05/01 05:27:09;;;;;;;59.78;53.33;;;9.10;88.30;;;;;;5094024;28;20744;-77
2021/05/01 05:29:36;;;;;;;58.40;52.20;;;9.10;88.70;;;;;;5094395;28;20199;-78
2021/05/01 05:32:05;;;;;;;57.65;51.58;;;9.10;89.70;;;;;;5096180;28;20215;-78
2021/05/01 05:34:31;;;;;;;55.35;49.83;;;9.20;89.10;;;;;;5095955;28;20294;-78
2021/05/01 05:36:58;;;;;;;59.33;53.33;;;9.20;88.50;;;;;;5094816;28;20234;-78
2021/05/01 05:39:26;;;;;;;62.28;53.70;;;9.40;87.10;;;;;;5095153;28;20282;-77
2021/05/01 05:41:53;;;;;;;78.15;54.10;;;9.40;86.50;;;;;;5095140;28;20219;-78
2021/05/01 05:44:19;;;;;;;61.30;50.97;;;9.40;86.60;;;;;;5095164;28;20286;-77
2021/05/01 05:46:45;;;;;;;58.85;52.65;;;9.50;85.60;;;;;;5093975;28;20768;-77
2021/05/01 05:49:12;;;;;;;59.25;52.95;;;9.60;85.40;;;;;;5094640;28;20530;-77
2021/05/01 05:51:38;;;;;;;58.38;52.40;;;9.70;85.10;;;;;;5093981;28;20219;-78
2021/05/01 05:54:05;;;;;;;59.05;53.20;;;9.50;85.90;;;;;;5093843;28;20203;-77
2021/05/01 05:56:34;;;;;;;58.10;52.13;;;9.50;86.10;;;;;;5093368;28;20674;-77
2021/05/01 05:59:00;;;;;;;59.28;53.10;;;9.70;85.80;;;;;;5093977;28;20608;-77
2021/05/01 06:01:30;;;;;;;61.05;53.95;;;9.60;84.90;;;;;;5093712;28;20219;-78
2021/05/01 06:03:58;;;;;;;57.70;51.70;;;9.60;86.10;;;;;;5094226;28;20187;-78
2021/05/01 06:06:29;;;;;;;96.95;61.42;;;9.70;85.70;;;;;;5093218;28;20221;-78
2021/05/01 06:08:56;;;;;;;58.70;52.78;;;9.80;84.40;;;;;;5093733;28;20274;-78
2021/05/01 06:11:23;;;;;;;56.95;51.25;;;9.60;85.00;;;;;;5093586;28;20305;-78
2021/05/01 06:13:51;;;;;;;56.85;50.97;;;9.60;85.10;;;;;;5093705;28;20222;-78
2021/05/01 06:16:20;;;;;;;53.97;48.72;;;9.70;84.90;;;;;;5093147;28;20191;-78
2021/05/01 06:18:48;;;;;;;54.75;49.53;;;9.90;83.60;;;;;;5093703;28;20657;-78
2021/05/01 06:21:15;;;;;;;51.78;46.78;;;10.00;81.90;;;;;;5093413;28;20306;-78
2021/05/01 06:23:42;;;;;;;53.08;48.30;;;9.90;81.90;;;;;;5093771;28;20218;-78
2021/05/01 06:26:08;;;;;;;53.45;48.33;;;9.80;82.00;;;;;;5092702;28;20245;-78
2021/05/01 06:28:36;;;;;;;78.38;49.00;;;9.80;82.00;;;;;;5092857;28;20200;-78
2021/05/01 06:31:05;;;;;;;73.05;50.10;;;10.10;79.70;;;;;;5093510;28;20298;-78
2021/05/01 06:33:35;;;;;;;53.10;47.35;;;10.10;79.50;;;;;;5092843;28;20278;-77
2021/05/01 06:36:03;;;;;;;53.22;47.92;;;10.20;79.40;;;;;;5092751;28;20199;-77
2021/05/01 06:38:30;;;;;;;49.40;45.00;;;10.10;79.30;;;;;;5093298;28;20345;-77
2021/05/01 06:41:00;;;;;;;49.95;45.75;;;9.90;79.70;;;;;;5092944;28;20305;-77
2021/05/01 06:43:43;;;;;;;48.45;44.17;;;9.80;79.90;;;;;;5093210;28;20210;-77
2021/05/01 06:46:15;;;;;;;45.15;40.85;;;9.60;80.40;;;;;;5092512;28;20223;-77
2021/05/01 06:48:41;;;;;;;47.60;43.42;;;9.50;80.10;;;;;;5092873;28;20207;-78
2021/05/01 06:51:08;;;;;;;46.58;42.40;;;9.60;80.30;;;;;;5092831;28;20734;-77
2021/05/01 06:53:36;;;;;;;49.97;45.58;;;9.60;79.90;;;;;;5092918;28;20199;-77
2021/05/01 06:56:04;;;;;;;55.60;50.80;;;9.70;79.80;;;;;;5092872;28;20270;-78
2021/05/01 06:58:33;;;;;;;46.72;42.72;;;9.80;81.60;;;;;;5092845;28;20240;-78
2021/05/01 07:01:03;;;;;;;47.35;43.05;;;10.10;79.20;;;;;;5092881;28;20258;-78
2021/05/01 07:03:32;;;;;;;53.03;48.33;;;10.20;78.40;;;;;;5092676;28;20245;-78
2021/05/01 07:06:01;;;;;;;44.03;40.53;;;10.20;77.90;;;;;;5092062;28;20257;-78
2021/05/01 07:08:28;;;;;;;46.00;42.13;;;10.40;77.50;;;;;;5092619;28;20461;-78
2021/05/01 07:10:54;;;;;;;44.10;40.50;;;10.30;77.90;;;;;;5092747;28;20507;-78
2021/05/01 07:13:21;;;;;;;46.03;42.23;;;10.30;77.00;;;;;;5092771;28;20572;-78
2021/05/01 07:15:47;;;;;;;50.53;46.23;;;10.30;77.50;;;;;;5092163;28;20827;-78
2021/05/01 07:18:14;;;;;;;47.80;43.50;;;10.40;77.40;;;;;;5092516;28;20461;-78
2021/05/01 07:20:42;;;;;;;47.20;43.13;;;10.50;77.10;;;;;;5092325;28;20473;-78
2021/05/01 07:23:08;;;;;;;42.40;39.07;;;10.40;77.10;;;;;;5092430;28;20963;-78
2021/05/01 07:25:34;;;;;;;48.07;44.03;;;10.40;76.70;;;;;;5091875;28;20489;-78
2021/05/01 07:28:03;;;;;;;48.17;44.10;;;10.40;77.50;;;;;;5092005;28;20540;-77
2021/05/01 07:30:37;;;;;;;46.93;43.00;;;10.40;77.30;;;;;;5092385;28;20509;-78
2021/05/01 07:33:23;;;;;;;45.50;41.07;;;10.20;77.10;;;;;;5092244;28;20592;-77
2021/05/01 07:35:53;;;;;;;47.77;43.77;;;10.20;77.60;;;;;;5091940;28;20448;-78
2021/05/01 07:38:23;;;;;;;48.27;44.07;;;10.20;79.80;;;;;;5092674;28;20464;-78
2021/05/01 07:40:51;;;;;;;50.63;46.03;;;10.50;76.60;;;;;;5092097;28;21025;-78
2021/05/01 07:43:19;;;;;;;50.83;46.17;;;10.50;76.70;;;;;;5092333;28;20456;-78
2021/05/01 07:45:47;;;;;;;48.95;44.65;;;10.40;77.30;;;;;;5092262;28;20264;-78
2021/05/01 07:48:15;;;;;;;49.10;44.67;;;10.40;77.20;;;;;;5096314;28;20211;-78
2021/05/01 07:50:42;;;;;;;51.97;47.38;;;10.20;78.10;;;;;;5096351;28;20529;-78
2021/05/01 07:53:09;;;;;;;50.10;45.57;;;10.10;78.90;;;;;;5096517;28;20227;-78
2021/05/01 07:55:37;;;;;;;47.60;43.50;;;10.10;79.50;;;;;;5095775;28;20453;-78
2021/05/01 07:58:04;;;;;;;48.67;44.40;;;10.40;78.40;;;;;;5096182;28;20453;-78
2021/05/01 08:00:30;;;;;;;45.80;42.00;;;10.50;77.60;;;;;;5096119;28;21045;-78
2021/05/01 08:02:56;;;;;;;46.00;42.00;;;10.70;76.80;;;;;;5096287;28;20453;-78
2021/05/01 08:05:23;;;;;;;44.73;41.07;;;10.90;76.20;;;;;;5096138;28;20913;-77
2021/05/01 08:07:50;;;;;;;44.20;40.50;;;11.00;75.40;;;;;;5095635;28;20453;-79
2021/05/01 08:10:17;;;;;;;46.60;42.60;;;11.10;76.10;;;;;;5096271;28;20468;-78
2021/05/01 08:12:43;;;;;;;45.23;41.40;;;10.90;75.20;;;;;;5096134;28;20453;-78
2021/05/01 08:15:12;;;;;;;45.40;41.47;;;10.90;75.20;;;;;;5096027;28;20474;-78
2021/05/01 08:17:40;;;;;;;45.60;41.97;;;11.10;74.70;;;;;;5095660;28;20776;-78
2021/05/01 08:20:08;;;;;;;43.73;40.20;;;11.10;73.90;;;;;;5096182;28;20475;-78
2021/05/01 08:22:36;;;;;;;44.67;40.80;;;11.10;73.90;;;;;;5096084;28;20504;-78
2021/05/01 08:25:03;;;;;;;42.20;38.80;;;11.10;73.80;;;;;;5096018;28;20456;-78
2021/05/01 08:27:30;;;;;;;44.23;40.73;;;11.00;75.20;;;;;;5095696;28;20476;-78
2021/05/01 08:29:57;;;;;;;47.00;43.17;;;10.90;74.30;;;;;;5096118;28;20544;-78
2021/05/01 08:32:23;;;;;;;44.63;40.97;;;11.00;74.50;;;;;;5095999;28;20464;-78
2021/05/01 08:34:49;;;;;;;43.70;40.00;;;11.00;74.50;;;;;;5095550;28;20535;-78
2021/05/01 08:37:16;;;;;;;44.90;41.10;;;11.00;75.80;;;;;;5095116;28;20497;-78
2021/05/01 08:39:43;;;;;;;44.23;40.47;;;11.20;74.00;;;;;;5095427;28;20474;-78
2021/05/01 08:42:09;;;;;;;43.67;40.20;;;11.40;72.70;;;;;;5095401;28;20468;-77
2021/05/01 08:44:37;;;;;;;45.17;41.60;;;11.20;73.10;;;;;;5095439;28;20528;-78
2021/05/01 08:47:05;;;;;;;46.77;42.77;;;11.10;74.00;;;;;;5094649;28;20476;-78
2021/05/01 08:49:32;;;;;;;50.10;44.23;;;11.20;74.20;;;;;;5095204;28;20453;-78
2021/05/01 08:51:58;;;;;;;44.60;40.90;;;11.20;73.60;;;;;;5095155;28;20465;-78
2021/05/01 08:54:24;;;;;;;46.87;42.80;;;11.10;73.50;;;;;;5095067;28;20942;-78
2021/05/01 08:56:51;;;;;;;44.57;40.87;;;11.20;73.70;;;;;;5094249;28;20477;-78
2021/05/01 08:59:19;;;;;;;46.00;42.00;;;11.30;73.30;;;;;;5095122;28;20492;-78
2021/05/01 09:01:49;;;;;;;45.10;41.50;;;11.30;73.20;;;;;;5095135;28;20537;-78
2021/05/01 09:04:16;;;;;;;47.13;43.23;;;11.30;72.90;;;;;;5094961;28;20485;-78
2021/05/01 09:06:43;;;;;;;43.97;40.57;;;11.40;73.20;;;;;;5094402;28;20479;-78
2021/05/01 09:09:11;;;;;;;44.77;41.17;;;11.50;72.90;;;;;;5094833;28;20456;-79
2021/05/01 09:11:39;;;;;;;44.67;41.17;;;11.50;72.80;;;;;;5094874;28;20580;-78
2021/05/01 09:14:17;;;;;;;46.93;43.03;;;11.50;72.50;;;;;;5094837;28;20861;-78
2021/05/01 09:16:44;;;;;;;45.63;41.80;;;11.60;72.80;;;;;;5094368;28;20954;-78
2021/05/01 09:19:12;;;;;;;46.30;42.50;;;11.50;72.50;;;;;;5094708;28;20453;-78
2021/05/01 09:21:38;;;;;;;50.73;46.23;;;11.50;75.00;;;;;;5094470;28;20996;-78
2021/05/01 09:24:05;;;;;;;47.20;43.40;;;11.40;73.90;;;;;;5094579;28;20868;-78
2021/05/01 09:26:36;;;;;;;47.53;43.60;;;11.40;74.60;;;;;;5093901;28;20900;-78
2021/05/01 09:29:04;;;;;;;44.40;40.90;;;11.70;74.70;;;;;;5094179;28;20535;-78
2021/05/01 09:31:40;;;;;;;47.77;43.90;;;11.90;72.20;;;;;;5094450;28;20498;-78
2021/05/01 09:34:07;;;;;;;46.67;42.93;;;11.80;71.80;;;;;;5094249;28;21042;-77
2021/05/01 09:36:35;;;;;;;45.57;41.67;;;11.90;73.10;;;;;;5093861;28;20947;-78
2021/05/01 09:39:10;;;;;;;45.57;42.07;;;11.90;73.90;;;;;;5094569;28;20522;-78
2021/05/01 09:41:38;;;;;;;45.43;41.20;;;12.20;75.40;;;;;;5094167;28;20476;-78
2021/05/01 09:44:07;;;;;;;43.77;40.03;;;12.30;71.70;;;;;;5094268;28;20536;-79
2021/05/01 09:46:44;;;;;;;46.00;42.03;;;12.40;70.80;;;;;;5093472;28;20476;-78
2021/05/01 09:49:13;;;;;;;44.13;40.83;;;12.40;69.80;;;;;;5094281;28;20787;-78
2021/05/01 09:51:52;;;;;;;43.13;39.67;;;12.50;69.40;;;;;;5094039;28;20974;-78
2021/05/01 09:54:20;;;;;;;44.07;40.57;;;12.60;68.70;;;;;;5094048;28;21003;-78
2021/05/01 09:56:48;;;;;;;43.80;40.30;;;12.40;69.10;;;;;;5093479;28;21075;-78
2021/05/01 09:59:15;;;;;;;46.10;42.53;;;12.40;69.40;;;;;;5093933;28;20814;-78
2021/05/01 10:01:42;;;;;;;44.87;41.37;;;12.30;69.70;;;;;;5093932;28;20553;-78
2021/05/01 10:04:13;;;;;;;45.63;41.83;;;12.10;70.10;;;;;;5093918;28;20487;-78
2021/05/01 10:06:44;;;;;;;45.43;41.60;;;12.30;69.60;;;;;;5093210;28;20480;-78
2021/05/01 10:09:11;;;;;;;48.53;44.60;;;12.40;68.60;;;;;;5092787;28;20456;-78
2021/05/01 10:11:38;;;;;;;44.07;40.67;;;12.30;68.50;;;;;;5093729;28;20476;-78
2021/05/01 10:14:08;;;;;;;42.10;38.30;;;12.50;68.40;;;;;;5093793;28;20465;-78
2021/05/01 10:16:35;;;;;;;44.83;41.33;;;12.70;67.80;;;;;;5093087;28;20456;-78
2021/05/01 10:19:07;;;;;;;46.83;43.23;;;13.00;67.00;;;;;;5093694;28;20482;-78
2021/05/01 10:21:36;;;;;;;45.33;41.83;;;13.10;66.10;;;;;;5093478;28;20474;-79
2021/05/01 10:24:04;;;;;;;45.60;41.53;;;13.00;67.30;;;;;;5093306;28;20535;-78
2021/05/01 10:26:44;;;;;;;45.57;41.67;;;13.20;67.00;;;;;;5092672;28;20559;-78
2021/05/01 10:29:24;;;;;;;45.73;42.00;;;13.50;66.20;;;;;;5092831;28;20510;-78
2021/05/01 10:31:54;;;;;;;44.63;40.93;;;13.50;66.40;;;;;;5093318;28;20556;-78
2021/05/01 10:34:23;;;;;;;46.80;42.97;;;13.50;65.70;;;;;;5092854;28;20956;-78
2021/05/01 10:36:52;;;;;;;48.13;44.17;;;13.50;65.60;;;;;;5092919;28;20823;-78
2021/05/01 10:39:20;;;;;;;48.40;43.93;;;13.30;66.00;;;;;;5093231;28;20445;-78
2021/05/01 10:41:57;;;;;;;48.00;44.07;;;13.20;66.60;;;;;;5093223;28;20559;-78
2021/05/01 10:44:24;;;;;;;45.80;42.03;;;12.90;67.40;;;;;;5093143;28;20449;-78
2021/05/01 10:46:51;;;;;;;47.83;42.90;;;13.00;66.60;;;;;;5092205;28;20920;-78
2021/05/01 10:49:18;;;;;;;47.03;43.17;;;13.30;65.20;;;;;;5093224;28;20471;-78
2021/05/01 10:51:46;;;;;;;46.40;42.60;;;13.60;65.60;;;;;;5093178;28;20560;-78
2021/05/01 10:54:15;;;;;;;47.10;43.10;;;13.90;65.00;;;;;;5092991;28;20479;-77
2021/05/01 10:56:44;;;;;;;51.43;46.73;;;14.20;63.20;;;;;;5092477;28;20532;-78
2021/05/01 10:59:12;;;;;;;47.47;43.60;;;14.00;63.90;;;;;;5092813;28;20454;-78
2021/05/01 11:01:46;;;;;;;47.47;43.77;;;13.80;64.00;;;;;;5093493;28;20537;-78
2021/05/01 11:04:17;;;;;;;47.53;43.63;;;13.60;65.60;;;;;;5092813;28;20453;-78
2021/05/01 11:06:47;;;;;;;50.20;46.10;;;13.50;65.90;;;;;;5092362;28;21037;-78
2021/05/01 11:09:18;;;;;;;49.73;45.67;;;13.70;65.40;;;;;;5092857;28;20965;-78
2021/05/01 11:11:50;;;;;;;53.07;48.07;;;13.40;66.60;;;;;;5092506;28;20505;-78
2021/05/01 11:14:22;;;;;;;52.07;47.70;;;13.40;66.90;;;;;;5092920;28;20811;-78
2021/05/01 11:16:53;;;;;;;52.20;47.37;;;13.10;67.80;;;;;;5092409;28;20457;-77
2021/05/01 11:19:22;;;;;;;54.60;49.87;;;12.70;68.90;;;;;;5093004;28;20455;-78
2021/05/01 11:21:49;;;;;;;50.53;46.23;;;12.40;70.30;;;;;;5093043;28;20488;-78
2021/05/01 11:24:16;;;;;;;52.00;47.67;;;12.70;70.50;;;;;;5092600;28;20946;-77
2021/05/01 11:26:45;;;;;;;51.87;47.33;;;12.90;69.40;;;;;;5091902;28;20560;-78
2021/05/01 11:29:12;;;;;;;53.40;48.90;;;13.00;69.50;;;;;;5092384;28;20551;-78
2021/05/01 11:31:41;;;;;;;50.97;46.60;;;12.80;69.80;;;;;;5092401;28;20469;-78
2021/05/01 11:34:11;;;;;;;51.80;47.30;;;12.90;69.90;;;;;;5092217;28;20525;-78
2021/05/01 11:36:46;;;;;;;51.20;46.80;;;13.20;69.30;;;;;;5091813;28;20457;-78
2021/05/01 11:39:14;;;;;;;51.97;47.63;;;13.40;68.80;;;;;;5092247;28;20488;-77
2021/05/01 11:41:44;;;;;;;48.93;44.57;;;13.30;68.80;;;;;;5092522;28;20548;-77
2021/05/01 11:44:12;;;;;;;47.97;43.80;;;13.20;69.70;;;;;;5092346;28;20534;-78
2021/05/01 11:46:45;;;;;;;49.17;44.67;;;13.30;67.60;;;;;;5091721;28;20563;-78
2021/05/01 11:49:13;;;;;;;49.87;45.77;;;13.40;67.50;;;;;;5092277;28;20503;-78
2021/05/01 11:51:57;;;;;;;51.23;46.13;;;13.40;67.30;;;;;;5092320;28;20473;-78
2021/05/01 11:54:35;;;;;;;50.83;46.60;;;12.90;68.60;;;;;;5092367;28;20455;-78
2021/05/01 11:57:10;;;;;;;50.30;45.77;;;12.70;69.80;;;;;;5091680;28;20472;-78
2021/05/01 11:59:43;;;;;;;51.57;46.97;;;12.70;70.10;;;;;;5092462;28;20457;-77
2021/05/01 12:02:11;;;;;;;53.27;48.13;;;12.90;69.80;;;;;;5092268;28;20487;-78
2021/05/01 12:04:49;;;;;;;48.80;44.70;;;13.00;69.30;;;;;;5092074;28;20449;-77
2021/05/01 12:07:24;;;;;;;50.10;45.80;;;13.20;69.10;;;;;;5091478;28;20559;-77
2021/05/01 12:09:54;;;;;;;49.40;45.20;;;13.30;68.50;;;;;;5092002;28;20452;-78
2021/05/01 12:12:22;;;;;;;50.80;46.23;;;13.30;68.80;;;;;;5092232;28;20594;-78
2021/05/01 12:14:49;;;;;;;51.43;46.57;;;13.00;70.40;;;;;;5092035;28;20506;-78
2021/05/01 12:17:16;;;;;;;52.57;47.73;;;12.90;69.70;;;;;;5091552;28;20473;-78
2021/05/01 12:19:45;;;;;;;49.47;45.37;;;13.00;69.90;;;;;;5092173;28;20799;-77
2021/05/01 12:22:25;;;;;;;54.63;49.73;;;13.20;69.10;;;;;;5091992;28;20898;-78
2021/05/01 12:24:52;;;;;;;52.37;48.00;;;13.10;69.10;;;;;;5091721;28;20453;-78
2021/05/01 12:27:50;;;;;;;49.00;44.83;;;12.70;70.40;;;;;;5091300;28;20481;-79
2021/05/01 12:30:48;;;;;;;51.17;46.67;;;12.60;71.00;;;;;;5092155;28;20922;-78
2021/05/01 12:33:49;;;;;;;50.37;46.20;;;12.90;70.20;;;;;;5049797;28;20453;-77
2021/05/01 12:36:19;;;;;;;51.83;47.53;;;13.00;69.60;;;;;;5095328;28;20436;-77
2021/05/01 12:38:50;;;;;;;51.03;46.57;;;12.80;69.70;;;;;;5095826;28;20449;-78